Time;durP1;ratioP1;P1;durP2;ratioP2;P2;SDS_P1;SDS_P2;PMS_P1;PMS_P2;Temp;Humidity;BMP_temperature;BMP_pressure;BME280_temperature;BME280_humidity;BME280_pressure;Samples;Min_cycle;Max_cycle;Signal;HPM_P1;HPM_P2
2021/10/09 00:04:11;;;;;;;4.70;4.20;;;23.30;54.10;;;;;;6261627;23;20165;-81
2021/10/09 00:06:36;;;;;;;4.60;4.20;;;23.20;54.10;;;;;;6234416;23;20389;-81
2021/10/09 00:09:06;;;;;;;5.10;4.23;;;23.20;54.20;;;;;;6234406;23;20170;-81
2021/10/09 00:11:36;;;;;;;5.97;4.80;;;23.20;54.10;;;;;;6234116;23;20161;-81
2021/10/09 00:14:06;;;;;;;6.20;4.73;;;23.20;54.10;;;;;;6260831;23;20373;-81
2021/10/09 00:16:32;;;;;;;5.50;4.27;;;23.20;54.10;;;;;;6261039;23;20463;-81
2021/10/09 00:18:58;;;;;;;4.30;3.90;;;23.20;54.10;;;;;;6260642;23;20373;-81
2021/10/09 00:21:26;;;;;;;5.13;4.63;;;23.20;54.10;;;;;;6261343;23;20381;-81
2021/10/09 00:23:52;;;;;;;4.50;4.00;;;23.20;54.10;;;;;;6236671;23;20464;-81
2021/10/09 00:26:24;;;;;;;5.00;3.90;;;23.20;54.10;;;;;;6240739;23;20443;-82
2021/10/09 00:28:50;;;;;;;5.77;4.63;;;23.20;54.10;;;;;;6240150;23;20161;-81
2021/10/09 00:31:16;;;;;;;4.60;4.13;;;23.20;54.10;;;;;;6266708;23;20708;-81
2021/10/09 00:33:42;;;;;;;4.83;4.43;;;23.20;54.10;;;;;;6240922;23;20471;-81
2021/10/09 00:36:10;;;;;;;4.83;4.33;;;23.20;54.20;;;;;;6239802;23;20420;-81
2021/10/09 00:38:35;;;;;;;4.73;4.30;;;23.20;54.10;;;;;;6240149;23;20453;-81
2021/10/09 00:41:08;;;;;;;5.33;4.83;;;23.20;54.20;;;;;;6240486;23;20396;-81
2021/10/09 00:43:33;;;;;;;4.57;4.10;;;23.20;54.10;;;;;;6240486;23;20365;-81
2021/10/09 00:46:03;;;;;;;5.27;4.77;;;23.20;54.20;;;;;;6237818;23;20396;-81
2021/10/09 00:48:36;;;;;;;4.30;3.90;;;23.20;54.20;;;;;;6239887;23;20158;-81
2021/10/09 00:51:06;;;;;;;4.47;4.07;;;23.20;54.20;;;;;;6240094;23;20361;-81
2021/10/09 00:53:36;;;;;;;4.57;4.03;;;23.20;54.20;;;;;;6239716;23;20390;-81
2021/10/09 00:56:03;;;;;;;4.40;4.00;;;23.20;54.20;;;;;;6239693;23;20382;-81
2021/10/09 00:58:30;;;;;;;5.07;4.57;;;23.20;54.20;;;;;;6239600;23;20374;-81
2021/10/09 01:00:56;;;;;;;5.63;4.00;;;23.20;54.20;;;;;;6267705;23;20911;-81
2021/10/09 01:03:23;;;;;;;4.53;4.13;;;23.20;54.20;;;;;;6240226;23;20385;-82
2021/10/09 01:05:51;;;;;;;4.87;4.37;;;23.20;54.20;;;;;;6267348;23;20377;-82
2021/10/09 01:08:17;;;;;;;4.10;3.70;;;23.20;54.20;;;;;;6240359;23;20863;-82
2021/10/09 01:10:45;;;;;;;4.77;4.37;;;23.20;54.20;;;;;;6267618;23;20408;-82
2021/10/09 01:13:11;;;;;;;9.70;5.27;;;23.20;54.20;;;;;;6240347;23;20385;-82
2021/10/09 01:15:37;;;;;;;5.13;4.40;;;23.20;54.20;;;;;;6266453;23;20374;-82
2021/10/09 01:18:14;;;;;;;4.70;4.20;;;23.20;54.20;;;;;;6239104;23;20179;-82
2021/10/09 01:21:02;;;;;;;5.77;4.43;;;23.20;54.20;;;;;;6240842;23;20385;-82
2021/10/09 01:23:29;;;;;;;5.50;4.93;;;23.20;54.20;;;;;;6240102;23;20381;-82
2021/10/09 01:25:58;;;;;;;5.30;4.77;;;23.10;54.10;;;;;;6267174;23;20449;-82
2021/10/09 01:28:31;;;;;;;4.90;4.30;;;23.20;54.20;;;;;;6239183;23;20384;-82
2021/10/09 01:30:57;;;;;;;5.27;4.77;;;23.20;54.20;;;;;;6214987;23;20385;-82
2021/10/09 01:33:25;;;;;;;5.30;4.60;;;23.10;54.10;;;;;;6238986;23;20373;-82
2021/10/09 01:35:55;;;;;;;6.07;4.20;;;23.20;54.20;;;;;;6239952;23;20161;-82
2021/10/09 01:38:26;;;;;;;6.10;5.17;;;23.20;54.20;;;;;;6240386;23;20441;-82
2021/10/09 01:40:53;;;;;;;4.50;4.10;;;23.10;54.10;;;;;;6239489;23;20764;-82
2021/10/09 01:43:21;;;;;;;4.90;4.50;;;23.10;54.10;;;;;;6240371;23;20365;-82
2021/10/09 01:45:48;;;;;;;4.30;3.90;;;23.10;54.10;;;;;;6239973;23;20381;-82
2021/10/09 01:48:15;;;;;;;4.93;3.90;;;23.10;54.10;;;;;;6238124;23;20854;-82
2021/10/09 01:50:42;;;;;;;4.20;3.80;;;23.10;54.10;;;;;;6234485;23;20388;-82
2021/10/09 01:53:11;;;;;;;5.30;4.37;;;23.10;54.10;;;;;;6234801;23;20410;-83
2021/10/09 01:55:38;;;;;;;4.70;3.60;;;23.10;54.10;;;;;;6260986;23;20416;-82
2021/10/09 01:58:08;;;;;;;4.73;3.90;;;23.10;54.10;;;;;;6234345;23;20447;-82
2021/10/09 02:00:34;;;;;;;5.43;4.37;;;23.10;54.10;;;;;;6234760;23;20377;-82
2021/10/09 02:03:05;;;;;;;4.47;3.90;;;23.10;54.10;;;;;;6234322;23;20381;-82
2021/10/09 02:05:32;;;;;;;4.30;3.90;;;23.10;54.10;;;;;;6261312;23;20350;-82
2021/10/09 02:08:02;;;;;;;4.60;4.20;;;23.10;54.20;;;;;;6235563;23;20381;-82
2021/10/09 02:10:28;;;;;;;4.10;3.80;;;23.10;54.20;;;;;;6234979;23;20417;-82
2021/10/09 02:12:55;;;;;;;5.07;4.67;;;23.10;54.20;;;;;;6234843;23;20413;-82
2021/10/09 02:15:36;;;;;;;3.70;3.40;;;23.10;54.10;;;;;;6262315;23;20388;-82
2021/10/09 02:25:59;;;;;;;4.93;4.43;;;23.10;54.20;;;;;;6262090;23;20349;-82
2021/10/09 02:28:24;;;;;;;7.17;4.10;;;23.10;54.20;;;;;;6261255;23;20401;-82
2021/10/09 02:30:52;;;;;;;4.90;4.33;;;23.10;54.20;;;;;;6234917;23;20612;-82
2021/10/09 02:33:18;;;;;;;4.37;3.87;;;23.10;54.20;;;;;;6234155;23;20150;-82
2021/10/09 02:35:53;;;;;;;4.57;4.17;;;23.10;54.20;;;;;;6234457;23;20848;-82
2021/10/09 02:38:19;;;;;;;6.00;3.93;;;23.10;54.20;;;;;;6233970;23;20166;-82
2021/10/09 02:40:45;;;;;;;4.17;3.77;;;23.10;54.20;;;;;;6261671;23;20416;-83
2021/10/09 02:43:12;;;;;;;5.13;4.33;;;23.10;54.20;;;;;;6233291;23;20541;-83
2021/10/09 02:45:38;;;;;;;4.37;3.93;;;23.10;54.20;;;;;;6234195;23;20378;-82
2021/10/09 02:48:07;;;;;;;4.50;4.13;;;23.10;54.20;;;;;;6233671;23;20389;-82
2021/10/09 02:50:33;;;;;;;5.77;4.40;;;23.10;54.20;;;;;;6260420;23;20225;-82
2021/10/09 02:52:59;;;;;;;4.70;4.20;;;23.10;54.20;;;;;;6233302;23;20396;-82
2021/10/09 02:55:25;;;;;;;4.70;4.03;;;23.10;54.20;;;;;;6233672;23;20855;-82
2021/10/09 02:57:51;;;;;;;4.30;3.90;;;23.00;54.10;;;;;;6233654;23;20428;-83
2021/10/09 03:00:19;;;;;;;5.20;4.10;;;23.00;54.10;;;;;;6260393;23;20138;-83
2021/10/09 03:02:45;;;;;;;4.17;3.77;;;23.00;54.10;;;;;;6260584;23;20396;-82
2021/10/09 03:05:12;;;;;;;4.93;4.43;;;23.00;54.10;;;;;;6234268;23;20377;-83
2021/10/09 03:07:39;;;;;;;4.33;3.93;;;23.00;54.10;;;;;;6234036;23;20211;-82
2021/10/09 03:10:06;;;;;;;3.93;3.63;;;23.00;54.20;;;;;;6233521;23;20381;-82
2021/10/09 03:12:35;;;;;;;4.70;4.07;;;23.00;54.10;;;;;;6233951;23;20847;-82
2021/10/09 03:15:01;;;;;;;4.90;4.40;;;23.00;54.20;;;;;;6233394;23;20452;-82
2021/10/09 03:17:26;;;;;;;4.30;3.70;;;23.00;54.10;;;;;;6260126;23;20413;-82
2021/10/09 03:23:14;;;;;;;4.00;3.70;;;23.10;54.20;;;;;;6260832;23;20137;-82
2021/10/09 03:29:02;;;;;;;4.67;4.17;;;23.10;54.20;;;;;;6260845;23;20142;-82
2021/10/09 03:31:28;;;;;;;4.13;3.73;;;23.00;54.20;;;;;;6261117;23;20683;-82
2021/10/09 03:33:54;;;;;;;6.10;4.47;;;23.00;54.20;;;;;;6233732;23;20485;-82
2021/10/09 03:36:22;;;;;;;4.27;3.87;;;23.00;54.20;;;;;;6234007;23;20183;-82
2021/10/09 03:38:48;;;;;;;4.60;4.20;;;23.00;54.20;;;;;;6234487;23;20150;-82
2021/10/09 03:41:15;;;;;;;4.83;4.37;;;23.00;54.20;;;;;;6259824;23;20380;-82
2021/10/09 03:43:42;;;;;;;4.40;4.03;;;23.00;54.10;;;;;;6260217;23;20373;-83
2021/10/09 03:46:19;;;;;;;5.07;4.57;;;23.00;54.20;;;;;;6260808;23;20405;-83
2021/10/09 03:55:24;;;;;;;4.93;3.97;;;23.00;54.20;;;;;;6260620;23;20396;-83
2021/10/09 03:57:52;;;;;;;6.03;3.90;;;23.00;54.20;;;;;;6224634;23;20451;-82
2021/10/09 04:00:25;;;;;;;4.50;4.03;;;22.90;54.10;;;;;;6232792;23;20456;-82
2021/10/09 04:02:52;;;;;;;4.27;3.87;;;22.90;54.10;;;;;;6234566;23;20669;-82
2021/10/09 04:05:38;;;;;;;4.30;3.90;;;23.00;54.20;;;;;;6261421;23;20401;-82
2021/10/09 04:08:08;;;;;;;4.57;4.17;;;23.00;54.20;;;;;;6260055;23;20401;-82
2021/10/09 04:10:38;;;;;;;6.43;4.00;;;22.90;54.10;;;;;;6233293;23;20409;-82
2021/10/09 04:13:05;;;;;;;4.07;3.50;;;23.00;54.20;;;;;;6234763;23;20385;-82
2021/10/09 04:15:58;;;;;;;4.13;3.47;;;22.90;54.10;;;;;;6262284;23;20365;-83
2021/10/09 04:18:24;;;;;;;5.17;4.00;;;23.00;54.10;;;;;;6235299;23;20452;-81
2021/10/09 04:20:54;;;;;;;4.70;4.00;;;22.90;54.10;;;;;;6262153;23;20361;-81
2021/10/09 04:23:19;;;;;;;4.10;3.70;;;22.90;54.10;;;;;;6262110;23;20138;-82
2021/10/09 04:25:48;;;;;;;4.83;3.93;;;22.90;54.10;;;;;;6262013;23;20369;-82
2021/10/09 04:28:14;;;;;;;5.30;4.20;;;22.90;54.10;;;;;;6235540;23;20162;-82
2021/10/09 04:30:39;;;;;;;5.27;4.33;;;22.90;54.10;;;;;;6235223;23;20437;-82
2021/10/09 04:33:11;;;;;;;4.10;3.70;;;23.00;54.20;;;;;;6235098;23;20154;-82
2021/10/09 04:35:40;;;;;;;4.17;3.77;;;23.00;54.20;;;;;;6235743;23;20159;-83
2021/10/09 04:38:11;;;;;;;4.00;3.60;;;23.00;54.20;;;;;;6262578;23;20412;-82
2021/10/09 04:40:38;;;;;;;4.40;4.00;;;23.00;54.20;;;;;;6234801;23;20705;-83
2021/10/09 04:43:07;;;;;;;5.67;4.00;;;23.00;54.20;;;;;;6235656;23;20377;-82
2021/10/09 04:45:33;;;;;;;4.33;3.70;;;23.00;54.20;;;;;;6234584;23;20373;-82
2021/10/09 04:48:05;;;;;;;4.30;3.87;;;23.00;54.20;;;;;;6235718;23;20453;-83
2021/10/09 04:50:32;;;;;;;4.10;3.70;;;23.00;54.20;;;;;;6236660;23;20158;-82
2021/10/09 04:52:58;;;;;;;3.57;3.10;;;23.00;54.20;;;;;;6235660;23;20381;-82
2021/10/09 04:55:23;;;;;;;3.93;3.60;;;23.00;54.20;;;;;;6235202;23;20378;-82
2021/10/09 04:57:49;;;;;;;4.40;4.00;;;23.00;54.20;;;;;;6235890;23;20187;-83
2021/10/09 05:00:15;;;;;;;5.07;3.97;;;23.00;54.20;;;;;;6262039;23;20169;-82
2021/10/09 05:02:41;;;;;;;4.03;3.63;;;23.00;54.20;;;;;;6262964;23;20166;-82
2021/10/09 05:05:07;;;;;;;5.63;3.70;;;23.00;54.10;;;;;;6236112;23;20151;-82
2021/10/09 05:07:33;;;;;;;4.40;3.77;;;23.00;54.10;;;;;;6235922;23;20150;-82
2021/10/09 05:09:59;;;;;;;3.83;3.50;;;23.00;54.10;;;;;;6235370;23;20685;-82
2021/10/09 05:12:25;;;;;;;3.43;3.13;;;23.00;54.10;;;;;;6235765;23;20392;-82
2021/10/09 05:14:51;;;;;;;3.93;3.53;;;23.00;54.10;;;;;;6262509;23;20158;-82
2021/10/09 05:17:16;;;;;;;3.93;3.57;;;23.00;54.10;;;;;;6235198;23;20202;-82
2021/10/09 05:19:42;;;;;;;3.10;2.80;;;23.00;54.10;;;;;;6235516;23;20178;-83
2021/10/09 05:22:08;;;;;;;3.77;3.47;;;23.00;54.10;;;;;;6261970;23;20156;-83
2021/10/09 05:24:34;;;;;;;3.83;3.43;;;23.00;54.10;;;;;;6235221;23;20151;-83
2021/10/09 05:27:02;;;;;;;4.07;3.67;;;23.00;54.10;;;;;;6235423;23;20415;-83
2021/10/09 05:29:30;;;;;;;4.20;3.80;;;23.00;54.10;;;;;;6262793;23;20157;-83
2021/10/09 05:32:03;;;;;;;6.03;3.40;;;23.00;54.10;;;;;;6235349;23;20416;-82
2021/10/09 05:34:29;;;;;;;4.17;3.63;;;23.00;54.10;;;;;;6236037;23;20758;-83
2021/10/09 05:36:55;;;;;;;3.43;3.13;;;23.10;54.20;;;;;;6262589;23;20401;-82
2021/10/09 05:39:21;;;;;;;3.80;3.50;;;23.10;54.20;;;;;;6237099;23;20377;-83
2021/10/09 05:41:47;;;;;;;4.40;4.00;;;23.00;54.10;;;;;;6265854;23;20446;-82
2021/10/09 05:44:12;;;;;;;3.50;3.20;;;23.10;54.10;;;;;;6240658;23;20161;-82
2021/10/09 05:46:38;;;;;;;3.90;3.50;;;23.10;54.10;;;;;;6266329;23;20146;-82
2021/10/09 05:49:04;;;;;;;3.50;3.20;;;23.10;54.10;;;;;;6239549;23;20151;-82
2021/10/09 05:51:34;;;;;;;4.20;3.73;;;23.10;54.10;;;;;;6266415;23;20974;-83
2021/10/09 05:56:38;;;;;;;3.50;3.20;;;23.10;54.10;;;;;;6266649;23;20471;-82
2021/10/09 06:42:45;;;;;;;4.27;3.50;;;23.10;54.20;;;;;;6266097;23;20413;-82
2021/10/09 07:01:13;;;;;;;4.77;4.30;;;23.10;54.20;;;;;;6265561;23;20352;-81
2021/10/09 07:03:39;;;;;;;4.00;3.60;;;23.10;54.20;;;;;;6266782;23;20888;-83
2021/10/09 07:06:05;;;;;;;3.40;3.10;;;23.10;54.20;;;;;;6239408;23;20208;-81
2021/10/09 07:08:31;;;;;;;5.60;4.00;;;23.10;54.20;;;;;;6240325;23;20162;-81
2021/10/09 07:10:59;;;;;;;5.20;3.80;;;23.10;54.20;;;;;;6239745;23;20373;-81
2021/10/09 07:13:25;;;;;;;4.43;4.03;;;23.10;54.20;;;;;;6239793;23;20210;-81
2021/10/09 07:15:50;;;;;;;4.40;4.00;;;23.10;54.20;;;;;;6239446;23;20408;-81
2021/10/09 07:18:16;;;;;;;5.33;3.93;;;23.20;54.20;;;;;;6239612;23;20236;-82
2021/10/09 07:20:42;;;;;;;3.87;3.57;;;23.10;54.10;;;;;;6266582;23;20146;-81
2021/10/09 07:23:10;;;;;;;4.93;4.33;;;23.10;54.10;;;;;;6239797;23;20157;-82
2021/10/09 07:25:37;;;;;;;4.57;3.80;;;23.20;54.20;;;;;;6266471;23;20437;-82
2021/10/09 07:28:03;;;;;;;4.40;4.00;;;23.10;54.10;;;;;;6265749;23;20440;-82
2021/10/09 07:30:32;;;;;;;7.30;4.30;;;23.10;54.10;;;;;;6265905;23;20374;-82
2021/10/09 07:32:58;;;;;;;4.60;4.00;;;23.20;54.20;;;;;;6239765;23;20416;-82
2021/10/09 07:35:25;;;;;;;5.10;4.10;;;23.20;54.20;;;;;;6239234;23;20389;-81
2021/10/09 07:37:51;;;;;;;6.40;3.77;;;23.20;54.20;;;;;;6265008;23;20405;-82
2021/10/09 07:40:20;;;;;;;4.43;3.70;;;23.20;54.20;;;;;;6266452;23;20429;-82
2021/10/09 07:42:46;;;;;;;6.17;4.07;;;23.20;54.20;;;;;;6266229;23;20357;-82
2021/10/09 07:45:11;;;;;;;4.77;4.03;;;23.20;54.20;;;;;;6239171;23;20398;-81
2021/10/09 07:47:37;;;;;;;4.93;4.20;;;23.20;54.20;;;;;;6266822;23;20393;-81
2021/10/09 07:50:04;;;;;;;4.30;3.90;;;23.20;54.20;;;;;;6241894;23;20166;-82
2021/10/09 07:52:30;;;;;;;4.87;4.37;;;23.20;54.20;;;;;;6268441;23;20161;-82
2021/10/09 07:54:56;;;;;;;4.60;3.77;;;23.20;54.20;;;;;;6241487;23;20377;-82
2021/10/09 07:57:21;;;;;;;4.87;4.20;;;23.20;54.20;;;;;;6241157;23;20415;-82
2021/10/09 07:59:47;;;;;;;4.67;4.00;;;23.20;54.20;;;;;;6241324;23;20204;-81
2021/10/09 08:02:13;;;;;;;5.10;4.30;;;23.20;54.20;;;;;;6241160;23;20178;-81
2021/10/09 08:04:39;;;;;;;5.33;4.10;;;23.20;54.20;;;;;;6267796;23;20143;-81
2021/10/09 08:10:27;;;;;;;5.13;4.10;;;23.30;54.20;;;;;;6267676;23;20133;-82
2021/10/09 08:12:52;;;;;;;5.10;3.77;;;23.20;54.20;;;;;;6240758;23;20377;-82
2021/10/09 08:15:18;;;;;;;5.47;3.90;;;23.20;54.20;;;;;;6241141;23;20151;-82
2021/10/09 08:17:44;;;;;;;5.67;4.27;;;23.20;54.20;;;;;;6267343;23;20637;-82
2021/10/09 08:20:11;;;;;;;4.10;3.70;;;23.20;54.20;;;;;;6267834;23;20489;-83
2021/10/09 08:22:40;;;;;;;8.37;4.60;;;23.20;54.20;;;;;;6267135;23;20149;-82
2021/10/09 08:35:48;;;;;;;4.30;3.90;;;23.20;54.20;;;;;;6267291;23;20380;-81
2021/10/09 08:40:58;;;;;;;4.17;3.63;;;23.20;54.30;;;;;;6266883;23;20380;-81
2021/10/09 08:43:28;;;;;;;4.63;4.03;;;23.20;54.30;;;;;;6266893;23;20373;-81
2021/10/09 08:45:53;;;;;;;3.97;3.57;;;23.20;54.30;;;;;;6239863;23;20154;-80
2021/10/09 08:48:23;;;;;;;4.50;3.80;;;23.20;54.20;;;;;;6266636;23;20379;-79
2021/10/09 08:50:53;;;;;;;5.17;4.37;;;23.20;54.30;;;;;;6234450;23;20154;-81
2021/10/09 08:53:33;;;;;;;4.60;4.20;;;23.20;54.30;;;;;;6209448;23;20388;-80
2021/10/09 08:55:59;;;;;;;4.60;3.40;;;23.20;54.30;;;;;;6212315;23;20382;-80
2021/10/09 08:58:34;;;;;;;4.50;4.00;;;23.20;54.30;;;;;;6234371;23;20428;-80
2021/10/09 09:01:09;;;;;;;3.60;3.30;;;23.30;54.30;;;;;;6235943;23;20405;-80
2021/10/09 09:09:21;;;;;;;4.57;3.50;;;23.20;54.30;;;;;;6271663;23;20368;-80
2021/10/09 09:26:04;;;;;;;4.03;3.57;;;23.30;54.90;;;;;;6262681;23;20353;-81
2021/10/09 09:37:10;;;;;;;5.80;3.43;;;23.30;54.40;;;;;;6262364;23;20766;-80
2021/10/09 09:39:41;;;;;;;4.50;3.10;;;23.30;54.40;;;;;;6235014;23;20380;-80
2021/10/09 09:42:08;;;;;;;4.30;3.63;;;23.30;54.40;;;;;;6261830;23;20360;-81
2021/10/09 09:44:34;;;;;;;5.93;3.67;;;23.30;54.40;;;;;;6262319;23;20452;-80
2021/10/09 09:47:07;;;;;;;4.87;3.70;;;23.30;54.40;;;;;;6234312;23;20408;-80
2021/10/09 09:49:33;;;;;;;3.93;3.53;;;23.30;54.30;;;;;;6261565;23;20369;-79
2021/10/09 09:51:59;;;;;;;3.43;3.13;;;23.30;54.40;;;;;;6261857;23;20374;-80
2021/10/09 09:54:30;;;;;;;4.53;3.23;;;23.30;54.30;;;;;;6234313;23;20472;-81
2021/10/09 09:56:57;;;;;;;4.17;3.60;;;23.30;54.30;;;;;;6261249;23;20221;-81
2021/10/09 09:59:31;;;;;;;3.60;3.20;;;23.30;54.30;;;;;;6261243;23;20396;-82
2021/10/09 10:02:05;;;;;;;3.93;3.60;;;23.30;54.30;;;;;;6234355;23;20408;-81
2021/10/09 10:04:33;;;;;;;4.23;3.60;;;23.30;54.30;;;;;;6235648;23;20384;-81
2021/10/09 10:07:00;;;;;;;3.87;3.13;;;23.30;54.30;;;;;;6233230;23;20420;-81
2021/10/09 10:09:30;;;;;;;4.70;3.67;;;23.30;54.30;;;;;;6234457;23;20385;-81
2021/10/09 10:11:58;;;;;;;4.10;3.70;;;23.30;54.30;;;;;;6261013;23;20373;-81
2021/10/09 10:14:28;;;;;;;3.80;3.50;;;23.30;54.30;;;;;;6234299;23;20389;-82
2021/10/09 10:16:56;;;;;;;4.27;3.30;;;23.30;54.30;;;;;;6234344;23;20887;-81
2021/10/09 10:19:50;;;;;;;4.23;3.63;;;23.30;54.30;;;;;;6234846;23;20389;-82
2021/10/09 10:22:31;;;;;;;3.90;3.40;;;23.30;54.30;;;;;;6261108;23;20365;-82
2021/10/09 10:28:25;;;;;;;5.67;4.00;;;23.30;54.30;;;;;;6259801;23;20674;-81
2021/10/09 10:31:05;;;;;;;6.30;4.50;;;23.30;54.30;;;;;;6233965;23;20441;-81
2021/10/09 10:33:37;;;;;;;4.73;4.23;;;23.30;54.30;;;;;;6233754;23;20373;-81
2021/10/09 10:36:03;;;;;;;6.00;4.73;;;23.20;54.20;;;;;;6233701;23;20448;-82
2021/10/09 10:38:34;;;;;;;5.30;4.10;;;23.20;54.20;;;;;;6260174;23;20421;-82
2021/10/09 10:57:04;;;;;;;5.43;4.73;;;23.20;54.10;;;;;;6257695;23;20424;-81
2021/10/09 11:02:11;;;;;;;5.60;4.93;;;23.20;54.00;;;;;;6270897;23;20385;-81
2021/10/09 11:04:39;;;;;;;4.67;4.13;;;23.10;53.90;;;;;;6260790;23;20374;-82
2021/10/09 11:07:06;;;;;;;5.40;4.07;;;23.10;53.80;;;;;;6234694;23;20155;-81
2021/10/09 11:09:34;;;;;;;5.13;4.63;;;23.10;53.70;;;;;;6233867;23;20848;-82
2021/10/09 11:12:00;;;;;;;6.63;4.37;;;23.10;53.70;;;;;;6260692;23;20472;-82
2021/10/09 11:14:26;;;;;;;5.97;4.60;;;23.20;53.70;;;;;;6234635;23;20378;-82
2021/10/09 11:17:03;;;;;;;5.20;4.70;;;23.20;53.70;;;;;;6234096;23;20471;-81
2021/10/09 11:19:56;;;;;;;6.20;5.00;;;23.20;53.60;;;;;;6234679;23;20205;-81
2021/10/09 11:22:22;;;;;;;6.00;5.00;;;23.20;53.60;;;;;;6227884;23;20374;-81
2021/10/09 11:24:52;;;;;;;8.33;5.63;;;23.10;53.50;;;;;;6236116;23;20874;-82
2021/10/09 11:27:20;;;;;;;6.17;5.03;;;23.10;53.50;;;;;;6235452;23;20506;-81
2021/10/09 11:30:06;;;;;;;7.70;4.60;;;23.10;53.50;;;;;;6235586;23;20862;-81
2021/10/09 11:32:33;;;;;;;6.27;4.83;;;23.10;53.40;;;;;;6235710;23;20435;-81
2021/10/09 11:35:00;;;;;;;5.50;4.40;;;23.10;53.40;;;;;;6234874;23;20751;-82
2021/10/09 11:37:26;;;;;;;5.23;4.73;;;23.10;53.40;;;;;;6235583;23;20444;-82
2021/10/09 11:39:56;;;;;;;5.73;4.47;;;23.10;53.30;;;;;;6236069;23;20373;-81
2021/10/09 11:42:29;;;;;;;6.10;4.80;;;23.10;53.30;;;;;;6263613;23;20380;-81
2021/10/09 11:53:38;;;;;;;8.10;5.10;;;23.00;53.10;;;;;;6262441;23;20446;-81
2021/10/09 11:56:09;;;;;;;5.87;4.83;;;23.00;53.10;;;;;;6236389;23;20444;-81
2021/10/09 11:58:49;;;;;;;5.53;4.53;;;23.00;53.10;;;;;;6262124;23;20405;-81
2021/10/09 12:01:28;;;;;;;5.20;4.70;;;23.00;53.10;;;;;;6236009;23;20381;-81
2021/10/09 12:03:54;;;;;;;5.60;4.97;;;23.10;53.10;;;;;;6236170;23;20449;-82
2021/10/09 12:06:22;;;;;;;5.70;4.30;;;23.00;53.10;;;;;;6263073;23;20385;-84
2021/10/09 12:08:48;;;;;;;5.93;4.30;;;23.00;53.10;;;;;;6264037;23;20365;-82
2021/10/09 12:11:13;;;;;;;5.10;4.30;;;23.00;53.10;;;;;;6236684;23;20412;-82
2021/10/09 12:13:57;;;;;;;7.00;4.27;;;23.10;53.20;;;;;;6262992;23;20146;-82
2021/10/09 12:16:27;;;;;;;5.27;3.90;;;23.10;53.30;;;;;;6236057;23;20143;-82
2021/10/09 12:18:59;;;;;;;4.17;3.77;;;23.10;53.30;;;;;;6236015;23;20389;-82
2021/10/09 12:21:53;;;;;;;5.97;4.10;;;23.10;53.30;;;;;;6240746;23;20361;-81
2021/10/09 12:24:20;;;;;;;4.47;3.80;;;23.10;53.30;;;;;;6275852;23;20389;-82
2021/10/09 12:27:05;;;;;;;4.70;4.13;;;23.10;53.30;;;;;;6249645;22;20405;-82
2021/10/09 12:29:35;;;;;;;5.13;4.47;;;23.10;53.30;;;;;;6248311;23;20380;-82
2021/10/09 12:32:25;;;;;;;4.57;3.77;;;23.10;53.30;;;;;;6249084;23;20404;-82
2021/10/09 12:35:20;;;;;;;4.77;4.27;;;23.10;53.30;;;;;;6275253;22;20337;-81
2021/10/09 12:38:04;;;;;;;4.50;4.10;;;23.10;53.30;;;;;;6249646;22;20416;-81
2021/10/09 12:40:39;;;;;;;3.60;3.23;;;23.10;53.30;;;;;;6249789;23;20366;-81
2021/10/09 12:43:08;;;;;;;4.93;4.07;;;23.10;53.80;;;;;;6249305;22;20434;-82
2021/10/09 12:45:36;;;;;;;5.13;4.10;;;23.10;53.30;;;;;;6275286;22;20370;-82
2021/10/09 12:48:03;;;;;;;5.10;4.60;;;23.00;53.20;;;;;;6249731;23;20412;-81
2021/10/09 12:50:34;;;;;;;5.20;4.40;;;23.10;53.20;;;;;;6249866;22;20419;-81
2021/10/09 12:53:00;;;;;;;4.73;4.13;;;23.10;53.20;;;;;;6249916;23;20395;-81
2021/10/09 12:55:28;;;;;;;5.10;4.60;;;23.10;53.20;;;;;;6249188;23;20393;-81
2021/10/09 12:57:56;;;;;;;8.13;4.57;;;23.00;53.10;;;;;;6248694;22;20427;-81
2021/10/09 13:00:24;;;;;;;4.93;4.30;;;23.10;53.10;;;;;;6249178;23;20476;-81
2021/10/09 13:02:53;;;;;;;5.13;4.20;;;23.10;53.00;;;;;;6248800;23;20393;-82
2021/10/09 13:05:27;;;;;;;5.30;4.73;;;23.00;52.90;;;;;;6274420;23;20361;-82
2021/10/09 13:07:54;;;;;;;4.33;3.73;;;23.10;53.00;;;;;;6273593;23;20356;-81
2021/10/09 13:10:21;;;;;;;4.63;3.73;;;23.00;52.90;;;;;;6247342;23;20385;-81
2021/10/09 13:12:48;;;;;;;4.13;3.77;;;23.00;52.80;;;;;;6274064;23;20354;-81
2021/10/09 13:15:17;;;;;;;6.70;3.50;;;23.00;52.80;;;;;;6274099;23;20369;-81
2021/10/09 13:17:49;;;;;;;4.40;4.00;;;23.00;52.70;;;;;;6248594;23;20428;-81
2021/10/09 13:20:18;;;;;;;3.80;3.30;;;23.00;52.70;;;;;;6273439;23;20346;-81
2021/10/09 13:22:45;;;;;;;4.67;4.17;;;23.00;52.70;;;;;;6246916;23;20374;-81
2021/10/09 13:25:11;;;;;;;4.50;4.10;;;23.00;52.70;;;;;;6242832;23;20393;-81
2021/10/09 13:27:37;;;;;;;4.87;4.33;;;23.00;52.60;;;;;;6242675;23;20385;-81
2021/10/09 13:30:07;;;;;;;5.03;4.17;;;23.00;52.60;;;;;;6268645;23;20381;-81
2021/10/09 13:32:32;;;;;;;4.90;4.10;;;23.00;52.50;;;;;;6241257;23;20186;-81
2021/10/09 13:34:58;;;;;;;5.60;4.03;;;23.00;52.50;;;;;;6243480;23;20389;-81
2021/10/09 13:37:31;;;;;;;5.60;3.60;;;23.00;52.50;;;;;;6244550;23;20232;-81
2021/10/09 13:39:58;;;;;;;7.97;4.07;;;23.00;52.50;;;;;;6243257;23;20350;-81
2021/10/09 13:42:27;;;;;;;5.10;4.23;;;23.00;52.40;;;;;;6243432;23;20403;-81
2021/10/09 13:44:54;;;;;;;5.17;4.23;;;23.00;52.30;;;;;;6217176;23;20417;-81
2021/10/09 13:47:24;;;;;;;8.07;4.57;;;23.00;52.30;;;;;;6270365;23;20418;-81
2021/10/09 13:49:53;;;;;;;6.90;4.13;;;22.90;52.20;;;;;;6219570;23;20405;-81
2021/10/09 13:52:19;;;;;;;5.07;4.50;;;22.90;52.20;;;;;;6243776;23;20452;-81
2021/10/09 13:54:52;;;;;;;5.83;3.70;;;22.90;52.10;;;;;;6244416;23;20393;-81
2021/10/09 13:57:20;;;;;;;6.43;4.40;;;22.90;52.10;;;;;;6243890;23;20424;-81
2021/10/09 13:59:49;;;;;;;4.87;3.90;;;22.90;52.00;;;;;;6242799;23;20424;-81
2021/10/09 14:02:15;;;;;;;5.40;4.07;;;22.90;52.00;;;;;;6219173;23;20405;-81
2021/10/09 14:04:51;;;;;;;5.50;4.40;;;22.90;52.00;;;;;;6270741;23;20801;-81
2021/10/09 14:07:18;;;;;;;3.60;3.30;;;22.90;52.00;;;;;;6267553;23;20412;-81
2021/10/09 14:09:45;;;;;;;5.00;4.30;;;22.90;52.00;;;;;;6217214;23;20385;-81
2021/10/09 14:12:12;;;;;;;5.63;4.00;;;22.90;51.90;;;;;;6241665;23;20373;-81
2021/10/09 14:15:10;;;;;;;4.97;3.60;;;22.90;51.80;;;;;;6243281;23;20382;-81
2021/10/09 14:17:45;;;;;;;7.73;4.43;;;22.90;51.80;;;;;;6264607;23;20413;-81
2021/10/09 14:20:11;;;;;;;3.97;3.60;;;22.90;51.80;;;;;;6269528;23;20482;-81
2021/10/09 14:22:38;;;;;;;5.70;3.80;;;22.80;51.60;;;;;;6242768;23;20142;-81
2021/10/09 14:25:05;;;;;;;4.67;4.00;;;22.80;51.60;;;;;;6268557;23;20373;-81
2021/10/09 14:27:32;;;;;;;5.60;3.97;;;22.80;51.60;;;;;;6242466;23;20457;-81
2021/10/09 14:29:58;;;;;;;4.50;4.10;;;22.80;51.50;;;;;;6242172;23;20381;-81
2021/10/09 14:32:25;;;;;;;3.77;3.20;;;22.80;51.40;;;;;;6268659;23;20369;-81
2021/10/09 14:34:53;;;;;;;4.60;4.20;;;22.80;51.50;;;;;;6268959;23;20373;-81
2021/10/09 14:37:20;;;;;;;4.80;3.80;;;22.80;51.40;;;;;;6242432;23;20428;-81
2021/10/09 14:39:50;;;;;;;5.00;3.30;;;22.80;51.40;;;;;;6268856;23;20338;-81
2021/10/09 14:42:18;;;;;;;4.90;4.27;;;22.80;51.30;;;;;;6269440;23;20412;-81
2021/10/09 14:44:47;;;;;;;7.23;4.23;;;22.80;51.30;;;;;;6217497;23;20407;-81
2021/10/09 14:49:55;;;;;;;6.67;4.10;;;22.80;51.20;;;;;;6269082;23;20381;-81
2021/10/09 15:20:30;;;;;;;6.53;3.80;;;22.70;51.00;;;;;;6176471;23;20900;-81
2021/10/09 15:22:57;;;;;;;5.00;4.23;;;22.70;51.00;;;;;;6150987;23;20388;-81
2021/10/09 15:25:24;;;;;;;6.00;4.03;;;22.70;51.00;;;;;;6126133;23;20388;-81
2021/10/09 15:27:52;;;;;;;6.20;3.90;;;22.70;51.10;;;;;;6151281;23;20427;-81
2021/10/09 15:30:18;;;;;;;5.40;4.50;;;22.70;51.00;;;;;;6151067;23;20391;-81
2021/10/09 15:32:50;;;;;;;5.13;3.87;;;22.80;51.10;;;;;;6194813;23;20386;-81
2021/10/09 15:35:20;;;;;;;6.30;4.37;;;22.70;51.00;;;;;;6212371;23;20381;-81
2021/10/09 15:37:48;;;;;;;4.53;3.87;;;22.70;51.00;;;;;;6211697;23;20429;-81
2021/10/09 15:40:19;;;;;;;4.77;3.90;;;22.70;51.00;;;;;;6211630;23;20382;-81
2021/10/09 15:42:51;;;;;;;5.53;4.07;;;22.70;51.00;;;;;;6237307;23;20351;-81
2021/10/09 15:45:25;;;;;;;4.97;3.70;;;22.80;51.00;;;;;;6187689;23;20382;-81
2021/10/09 15:47:53;;;;;;;7.63;4.97;;;22.70;51.00;;;;;;6211332;23;20404;-81
2021/10/09 15:50:24;;;;;;;8.20;4.30;;;22.70;51.00;;;;;;6210488;23;20382;-81
2021/10/09 15:52:50;;;;;;;5.77;4.00;;;22.80;51.00;;;;;;6180893;23;20397;-83
2021/10/09 15:55:17;;;;;;;4.90;3.97;;;22.70;51.00;;;;;;6205457;23;20416;-83
2021/10/09 15:57:42;;;;;;;3.77;3.40;;;22.70;51.00;;;;;;6205891;23;20429;-83
2021/10/09 16:00:10;;;;;;;6.67;4.40;;;22.70;50.90;;;;;;6228447;23;20469;-82
2021/10/09 16:02:36;;;;;;;4.40;3.97;;;22.70;50.90;;;;;;6236580;23;20173;-82
2021/10/09 16:05:04;;;;;;;5.23;4.17;;;22.70;50.90;;;;;;6236315;23;20380;-83
2021/10/09 16:07:32;;;;;;;6.10;4.10;;;22.70;50.90;;;;;;6236634;23;20383;-83
2021/10/09 16:10:01;;;;;;;7.63;4.70;;;22.70;50.90;;;;;;6237695;23;20385;-83